Latest Weather Observations for Jabiru

IDD60801

Issued at 10:35 pm CST Tuesday 21 October 2014 (issued every 30 minutes, with the page automatically refreshed every 10 minutes)

About weather observations | Map of weather stations | Latest weather observations for NT | Other Formats
Station Details ID: 014198 Name: JABIRU AIRPORT Lat: -12.66 Lon: 132.89 Height: 26.5 m
Data from the previous 72 hours. | See also: Recent months at Jabiru
Date/Time
CST
Temp
°C
App
Temp
°C
Dew
Point
Rel
Hum
%
Delta-T
°C
Wind Press
QNH
hPa
Press
MSL
hPa
Rain
since 9 am
mm
Dir
 
Spd
km/h
Gust
km/h
Spd
kts
Gust
kts
21/10:30pm 27.0 29.0 19.9 65 4.6 N 9 13 5 7 1014.6 1014.4 0.0
21/10:00pm 27.4 28.8 19.5 62 5.1 NNW 11 15 6 8 1014.3 1014.1 0.0
21/09:30pm 28.0 29.3 19.2 58 5.7 N 11 15 6 8 1014.0 1013.8 0.0
21/09:00pm 28.7 29.5 19.1 56 6.2 NNW 13 19 7 10 1013.5 1013.3 0.0
21/08:30pm 29.4 30.0 18.5 52 7.0 NNW 13 20 7 11 1013.1 1012.9 0.0
21/08:00pm 30.4 31.0 18.5 49 7.7 NNW 13 17 7 9 1012.7 1012.5 0.0
21/07:30pm 31.2 31.1 17.9 45 8.5 N 15 20 8 11 1012.1 1011.9 0.0
21/07:00pm 32.1 30.8 16.8 40 9.7 N 19 24 10 13 1011.6 1011.4 0.0
21/06:30pm 33.5 31.7 14.5 31 11.7 N 17 24 9 13 1011.2 1011.0 0.0
21/06:00pm 36.3 33.6 5.5 15 16.8 E 9 13 5 7 1010.5 1010.2 0.0
21/05:30pm 37.0 33.6 4.0 13 17.6 E 11 19 6 10 1010.2 1009.9 0.0
21/05:00pm 37.5 34.2 4.4 13 17.8 E 11 15 6 8 1010.0 1009.7 0.0
21/04:30pm 37.7 34.0 4.6 13 17.9 ESE 13 17 7 9 1009.9 1009.6 0.0
21/04:00pm 37.7 33.6 4.6 13 17.9 SE 15 24 8 13 1009.9 1009.6 0.0
21/03:30pm 37.4 33.3 4.4 13 17.8 SSE 15 30 8 16 1010.1 1009.8 0.0
21/03:00pm 37.7 33.3 4.6 13 17.9 ENE 17 24 9 13 1010.4 1010.1 0.0
21/02:30pm 38.2 33.9 7.0 15 17.5 E 19 30 10 16 1010.8 1010.5 0.0
21/02:00pm 37.1 33.6 7.1 16 16.8 SE 15 28 8 15 1011.4 1011.2 0.0
21/01:30pm 36.8 33.4 7.8 17 16.4 SE 15 20 8 11 1012.1 1011.9 0.0
21/01:00pm 36.3 32.1 7.4 17 16.2 SE 19 32 10 17 1012.9 1012.7 0.0
21/12:30pm 35.7 33.5 9.3 20 15.2 E 11 20 6 11 1013.7 1013.5 0.0
21/12:00pm 34.5 30.9 9.7 22 14.3 ESE 19 30 10 16 1014.4 1014.2 0.0
21/11:30am 33.4 31.4 10.1 24 13.4 SSE 11 19 6 10 1015.0 1014.8 0.0
21/11:00am 33.2 30.5 10.5 25 13.1 SE 15 28 8 15 1015.4 1015.2 0.0
21/10:30am 32.0 31.2 12.8 31 11.4 E 9 13 5 7 1015.8 1015.6 0.0
21/10:00am 31.0 31.0 14.2 36 10.2 ESE 7 13 4 7 1016.1 1015.9 0.0
21/09:30am 29.6 29.9 15.0 41 8.9 SE 7 13 4 7 1016.3 1016.1 0.0
21/09:00am 29.4 29.8 16.2 44 8.2 SSE 9 13 5 7 1016.3 1016.1 0.0
21/08:30am 28.0 29.7 18.4 56 6.1 SSW 7 11 4 6 1016.2 1016.0 0.0
21/08:00am 26.6 28.8 19.7 66 4.5 SW 7 11 4 6 1016.0 1015.8 0.0
21/07:30am 25.3 27.6 19.9 72 3.5 SSW 7 9 4 5 1015.7 1015.5 0.0
21/07:00am 24.1 26.5 20.0 78 2.7 WSW 7 9 4 5 1015.3 1015.1 0.0
21/06:30am 23.5 25.8 19.8 80 2.4 W 7 9 4 5 1014.7 1014.5 0.0
21/06:00am 23.5 27.0 19.6 79 2.5 CALM 0 0 0 0 1014.3 1014.1 0.0
21/05:30am 23.5 26.2 19.4 78 2.6 ESE 4 7 2 4 1013.8 1013.6 0.0
21/05:00am 24.5 26.6 19.3 73 3.3 E 7 9 4 5 1013.4 1013.2 0.0
21/04:30am 25.2 27.5 19.8 72 3.5 E 7 11 4 6 1013.4 1013.2 0.0
21/04:00am 25.6 29.3 19.9 70 3.7 CALM 0 0 0 0 1013.2 1013.0 0.0
21/03:30am 25.9 28.0 20.2 71 3.7 ENE 9 11 5 6 1013.4 1013.2 0.0
21/03:00am 26.3 27.4 20.4 70 3.9 ENE 15 19 8 10 1013.5 1013.3 0.0
21/02:30am 26.4 27.9 20.5 70 3.9 NE 13 15 7 8 1013.8 1013.6 0.0
21/02:00am 26.6 29.3 20.2 68 4.2 N 6 9 3 5 1014.1 1013.9 0.0
21/01:30am 25.8 28.0 19.7 69 3.9 SW 7 9 4 5 1014.3 1014.1 0.0
21/01:00am 26.8 29.5 20.2 67 4.3 NE 6 9 3 5 1014.5 1014.3 0.0
21/12:30am 26.8 29.2 19.7 65 4.6 NE 6 7 3 4 1014.6 1014.4 0.0
21/12:00am 27.2 29.5 19.8 64 4.8 N 7 9 4 5 1014.6 1014.4 0.0
 
Date/Time
CST
Temp
°C
App
Temp
°C
Dew
Point
Rel
Hum
%
Delta-T
°C
Wind Press
QNH
hPa
Press
MSL
hPa
Rain
since 9 am
mm
Dir
 
Spd
km/h
Gust
km/h
Spd
kts
Gust
kts
20/11:30pm 27.5 29.7 19.6 62 5.1 NNE 7 11 4 6 1014.5 1014.3 0.0
20/11:00pm 27.8 29.5 19.3 60 5.5 NNE 9 13 5 7 1014.4 1014.2 0.0
20/10:30pm 28.2 29.4 19.1 57 5.9 NNE 11 17 6 9 1014.3 1014.1 0.0
20/10:00pm 28.8 29.4 18.6 54 6.6 NE 13 19 7 10 1014.0 1013.8 0.0
20/09:30pm 29.3 28.9 17.2 48 7.6 NE 15 24 8 13 1013.7 1013.5 0.0
20/09:00pm 29.4 31.0 18.2 51 7.2 N 7 11 4 6 1012.8 1012.6 0.0
20/08:30pm 30.0 30.8 18.1 49 7.6 NE 11 17 6 9 1012.2 1012.0 0.0
20/08:00pm 30.4 30.3 17.8 46 8.0 N 15 22 8 12 1011.7 1011.5 0.0
20/07:30pm 31.3 30.5 17.2 42 9.0 N 17 28 9 15 1011.1 1010.9 0.0
20/07:00pm 32.5 30.8 14.6 34 11.0 NW 17 24 9 13 1010.6 1010.3 0.0
20/06:30pm 34.5 32.6 9.0 21 14.5 NE 9 11 5 6 1009.9 1009.6 0.0
20/06:00pm 35.5 32.3 8.3 19 15.4 ENE 15 19 8 10 1009.5 1009.2 0.0
20/05:30pm 36.1 33.6 8.0 18 15.9 ENE 11 15 6 8 1009.3 1009.0 0.0
20/05:00pm 36.5 33.1 7.5 17 16.3 ENE 15 26 8 14 1009.1 1008.8 0.0
20/04:30pm 36.9 33.0 7.0 16 16.7 ENE 17 20 9 11 1009.0 1008.7 0.0
20/04:00pm 37.3 32.9 7.3 16 16.8 E 20 30 11 16 1009.1 1008.8 0.0
20/03:30pm 36.6 32.2 6.7 16 16.6 ENE 19 28 10 15 1009.4 1009.1 0.0
20/03:00pm 36.7 33.9 6.8 16 16.6 E 11 22 6 12 1009.7 1009.4 0.0
20/02:30pm 36.9 33.7 7.0 16 16.7 SE 13 30 7 16 1010.0 1009.7 0.0
20/02:00pm 36.5 31.2 6.6 16 16.5 ENE 24 32 13 17 1010.7 1010.4 0.0
20/01:30pm 36.5 33.1 5.7 15 16.8 ESE 13 22 7 12 1011.4 1011.2 0.0
20/01:00pm 36.3 32.3 6.5 16 16.4 SE 17 30 9 16 1012.0 1011.8 0.0
20/12:30pm 35.8 32.4 4.2 14 16.8 SE 11 19 6 10 1012.7 1012.5 0.0
20/12:00pm 35.8 32.2 3.1 13 17.1 ESE 11 20 6 11 1013.4 1013.2 0.0
20/11:30am 35.0 28.7 1.4 12 17.0 ENE 24 37 13 20 1013.9 1013.7 0.0
20/11:00am 34.4 28.3 5.0 16 15.7 NE 26 37 14 20 1014.4 1014.2 0.0
20/10:30am 34.0 30.3 6.3 18 15.1 E 15 26 8 14 1014.5 1014.3 0.0
20/10:00am 32.8 30.5 11.9 28 12.3 E 15 24 8 13 1015.0 1014.8 0.0
20/09:30am 31.2 31.0 14.8 37 10.0 ESE 9 15 5 8 1015.4 1015.2 0.0
20/09:00am 30.0 29.8 15.7 42 8.8 SE 11 19 6 10 1015.4 1015.2 0.0
20/08:30am 29.0 28.1 15.9 45 8.1 SE 15 20 8 11 1015.4 1015.2 0.0
20/08:00am 27.9 29.0 18.0 55 6.3 ESE 9 15 5 8 1015.2 1015.0 0.0
20/07:30am 26.6 28.1 19.0 63 4.9 ESE 9 15 5 8 1015.0 1014.8 0.0
20/07:00am 24.4 27.6 21.3 83 2.0 S 6 9 3 5 1014.7 1014.5 0.0
20/06:30am 23.6 28.0 21.3 87 1.5 CALM 0 0 0 0 1014.3 1014.1 0.0
20/06:00am 23.8 26.8 21.3 86 1.6 SSW 7 9 4 5 1013.8 1013.6 0.0
20/05:30am 23.7 26.6 21.0 85 1.8 SSW 7 9 4 5 1013.6 1013.4 0.0
20/05:00am 24.1 27.0 21.0 83 2.0 SSW 7 11 4 6 1013.4 1013.2 0.0
20/04:30am 24.2 26.5 20.7 81 2.3 SSW 9 11 5 6 1013.3 1013.1 0.0
20/04:00am 25.2 28.3 21.1 78 2.7 W 6 7 3 4 1013.0 1012.8 0.0
20/03:30am 25.3 28.2 21.0 77 2.8 NNW 7 9 4 5 1012.7 1012.5 0.0
20/03:00am 26.0 30.3 21.2 75 3.2 CALM 0 0 0 0 1012.8 1012.6 0.0
20/02:30am 26.2 29.4 21.2 74 3.3 WSW 6 9 3 5 1013.0 1012.8 0.0
20/02:00am 26.5 30.3 21.0 72 3.6 ENE 2 7 1 4 1013.2 1013.0 0.0
20/01:30am 26.8 29.3 21.1 71 3.8 ENE 9 13 5 7 1013.3 1013.1 0.0
20/01:00am 27.4 30.5 21.4 70 4.0 ENE 7 9 4 5 1013.7 1013.5 0.0
20/12:30am 27.3 30.3 21.3 69 4.0 N 7 9 4 5 1014.0 1013.8 0.0
20/12:00am 27.5 30.6 21.5 70 4.0 N 7 7 4 4 1014.2 1014.0 0.0
 
Date/Time
CST
Temp
°C
App
Temp
°C
Dew
Point
Rel
Hum
%
Delta-T
°C
Wind Press
QNH
hPa
Press
MSL
hPa
Rain
since 9 am
mm
Dir
 
Spd
km/h
Gust
km/h
Spd
kts
Gust
kts
19/11:30pm 27.6 30.3 21.4 69 4.1 NNE 9 13 5 7 1014.3 1014.1 0.0
19/11:00pm 27.8 30.1 21.3 67 4.3 NNE 11 17 6 9 1014.1 1013.9 0.0
19/10:30pm 28.1 29.8 21.6 68 4.4 NNE 15 22 8 12 1014.0 1013.8 0.0
19/10:00pm 28.4 29.9 21.2 65 4.8 NE 15 20 8 11 1013.7 1013.5 0.0
19/09:30pm 29.1 30.4 20.8 61 5.5 NE 15 26 8 14 1012.9 1012.7 0.0
19/09:00pm 29.6 31.6 20.7 58 5.9 NNE 11 15 6 8 1012.5 1012.3 0.0
19/08:30pm 29.6 31.2 20.7 58 5.9 N 13 20 7 11 1012.1 1011.9 0.0
19/08:00pm 30.7 32.4 20.9 56 6.5 N 13 19 7 10 1011.4 1011.2 0.0
19/07:30pm 31.5 32.2 20.4 51 7.4 N 17 24 9 13 1010.7 1010.4 0.0
19/07:00pm 32.2 32.2 19.8 48 8.2 N 19 24 10 13 1010.1 1009.8 0.0
19/06:30pm 34.8 33.7 10.6 23 14.1 E 7 11 4 6 1009.6 1009.3 0.0
19/06:00pm 36.3 34.0 10.5 21 15.1 ENE 13 17 7 9 1009.3 1009.0 0.0
19/05:30pm 36.6 33.6 9.2 19 15.8 E 15 24 8 13 1009.0 1008.7 0.0
19/05:00pm 36.9 33.4 10.2 20 15.6 E 19 26 10 14 1008.9 1008.6 0.0
19/04:30pm 36.8 33.1 10.2 20 15.6 E 20 35 11 19 1008.8 1008.5 0.0
19/04:00pm 37.6 34.2 9.2 18 16.4 ESE 17 26 9 14 1008.9 1008.6 0.0
19/03:30pm 37.4 34.5 8.2 17 16.6 ESE 13 15 7 8 1009.1 1008.8 0.0
19/03:00pm 37.8 33.5 7.7 16 17.1 NE 20 26 11 14 1009.4 1009.1 0.0
19/02:30pm 37.7 34.3 7.6 16 17.0 SE 15 26 8 14 1009.6 1009.3 0.0
19/02:00pm 37.5 33.3 5.5 14 17.5 NE 17 26 9 14 1010.1 1009.8 0.0
19/01:30pm 37.5 33.5 6.5 15 17.2 SE 17 26 9 14 1010.4 1010.1 0.0
19/01:00pm 36.9 32.6 9.5 19 15.9 ENE 22 35 12 19 1011.0 1010.7 0.0
19/12:30pm 36.2 32.0 9.7 20 15.4 E 22 33 12 18 1011.8 1011.6 0.0
19/12:00pm 36.0 31.1 7.1 17 16.1 E 22 39 12 21 1012.5 1012.3 0.0
19/11:30am 34.5 31.9 13.9 29 12.6 E 20 30 11 16 1013.0 1012.8 0.0
19/11:00am 33.9 31.9 15.4 33 11.6 NNE 20 28 11 15 1013.6 1013.4 0.0
19/10:30am 33.3 31.7 16.6 36 10.6 NE 20 22 11 12 1014.0 1013.8 0.0
19/10:00am 32.0 31.1 17.8 42 9.1 E 19 26 10 14 1014.2 1014.0 0.0
19/09:30am 31.7 30.9 19.3 47 8.1 E 22 32 12 17 1014.4 1014.2 0.0
19/09:00am 30.5 31.2 20.4 54 6.7 NE 17 24 9 13 1014.5 1014.3 0.0
19/08:30am 29.5 30.0 20.1 57 6.2 ENE 17 20 9 11 1014.4 1014.2 0.0
19/08:00am 28.7 30.7 20.7 62 5.3 ENE 11 19 6 10 1014.1 1013.9 0.0
19/07:30am 27.5 29.9 20.8 67 4.4 E 9 11 5 6 1013.9 1013.7 0.0
19/07:00am 26.6 28.9 20.7 70 3.9 E 9 11 5 6 1013.5 1013.3 0.0
19/06:30am 26.2 29.1 20.7 71 3.6 E 6 7 3 4 1013.3 1013.1 0.0
19/06:00am 26.4 29.1 20.7 71 3.8 E 7 9 4 5 1012.9 1012.7 0.0
19/05:30am 26.5 30.6 20.8 71 3.8 CALM 0 0 0 0 1012.6 1012.4 0.0
19/05:00am 26.6 30.8 20.9 71 3.8 CALM 0 0 0 0 1012.4 1012.2 0.0
19/04:30am 26.5 29.5 20.8 71 3.8 N 6 7 3 4 1012.1 1011.9 0.0
19/04:00am 27.2 29.7 21.0 69 4.1 E 9 17 5 9 1012.0 1011.8 0.0
19/03:30am 27.2 29.3 21.0 69 4.1 E 11 15 6 8 1011.9 1011.7 0.0
19/03:00am 27.0 29.2 21.1 70 3.9 E 11 15 6 8 1011.9 1011.7 0.0
19/02:30am 27.0 29.9 21.1 70 3.9 E 7 9 4 5 1012.1 1011.9 0.0
19/02:00am 27.3 29.8 21.1 69 4.1 ENE 9 11 5 6 1012.5 1012.3 0.0
19/01:30am 27.6 30.2 21.2 68 4.3 NE 9 11 5 6 1012.8 1012.6 0.0
19/01:00am 27.9 30.5 21.2 67 4.5 ENE 9 11 5 6 1013.0 1012.8 0.0
19/12:30am 28.0 29.8 21.1 66 4.6 ENE 13 17 7 9 1013.3 1013.1 0.0
19/12:00am 28.3 29.5 20.6 63 5.1 ENE 15 22 8 12 1013.5 1013.3 0.0
 
Date/Time
CST
Temp
°C
App
Temp
°C
Dew
Point
Rel
Hum
%
Delta-T
°C
Wind Press
QNH
hPa
Press
MSL
hPa
Rain
since 9 am
mm
Dir
 
Spd
km/h
Gust
km/h
Spd
kts
Gust
kts
18/11:30pm 28.4 29.8 20.4 62 5.3 ENE 13 17 7 9 1013.3 1013.1 0.0
18/11:00pm 27.7 30.3 20.5 65 4.7 N 7 9 4 5 1013.2 1013.0 0.0

Other Formats:

Comma delimited format used in spreadsheet applications
http://www.bom.gov.au/fwo/IDD60801/IDD60801.94137.axf

JavaScript Object Notation format (JSON) in row-major order
http://www.bom.gov.au/fwo/IDD60801/IDD60801.94137.json